createdAt,value
2023-05-12T00:00:35.681Z,0.30
2023-05-12T00:01:35.647Z,0.20
2023-05-12T00:02:35.699Z,0.20
2023-05-12T00:03:35.732Z,0.20
2023-05-12T00:04:35.645Z,0.20
2023-05-12T00:05:35.584Z,0.20
2023-05-12T00:06:35.621Z,0.20
2023-05-12T00:07:35.562Z,0.20
2023-05-12T00:08:35.554Z,0.20
2023-05-12T00:09:35.549Z,0.20
2023-05-12T00:10:35.553Z,0.20
2023-05-12T00:11:35.512Z,0.20
2023-05-12T00:12:35.515Z,0.20
2023-05-12T00:13:35.514Z,0.20
2023-05-12T00:14:35.479Z,0.20
2023-05-12T00:15:35.458Z,0.20
2023-05-12T00:16:35.509Z,0.10
2023-05-12T00:17:35.475Z,0.20
2023-05-12T00:18:35.449Z,0.20
2023-05-12T00:19:35.405Z,0.20
2023-05-12T00:20:35.392Z,0.20
2023-05-12T00:21:35.379Z,0.20
2023-05-12T00:22:35.371Z,0.20
2023-05-12T00:23:35.352Z,0.20
2023-05-12T00:24:35.339Z,0.20
2023-05-12T00:25:35.330Z,0.20
2023-05-12T00:26:35.314Z,0.20
2023-05-12T00:27:35.310Z,0.20
2023-05-12T00:28:35.304Z,0.20
2023-05-12T00:29:35.275Z,0.20
2023-05-12T00:30:35.266Z,0.20
2023-05-12T00:31:35.271Z,0.20
2023-05-12T00:32:35.302Z,0.20
2023-05-12T00:33:35.230Z,0.20
2023-05-12T00:34:35.220Z,0.20
2023-05-12T00:35:35.199Z,0.20
2023-05-12T00:36:35.196Z,0.20
2023-05-12T00:37:35.178Z,0.20
2023-05-12T00:38:35.161Z,0.10
2023-05-12T00:39:35.155Z,0.10
2023-05-12T00:40:35.137Z,0.20
2023-05-12T00:41:35.122Z,0.20
2023-05-12T00:42:35.112Z,0.20
2023-05-12T00:43:35.096Z,0.20
2023-05-12T00:44:35.083Z,0.20
2023-05-12T00:45:35.097Z,0.20
2023-05-12T00:46:35.063Z,0.20
2023-05-12T00:47:35.059Z,0.20
2023-05-12T00:48:35.058Z,0.20
2023-05-12T00:49:35.025Z,0.20
2023-05-12T00:50:35.019Z,0.20
2023-05-12T00:51:35.009Z,0.20
2023-05-12T00:52:34.984Z,0.20
2023-05-12T00:53:47.724Z,0.30
2023-05-12T00:54:34.955Z,0.20
2023-05-12T00:55:34.957Z,0.20
2023-05-12T00:56:34.929Z,0.30
2023-05-12T00:57:34.913Z,0.20
2023-05-12T00:58:34.906Z,0.20
2023-05-12T00:59:34.889Z,0.20
2023-05-12T01:00:34.883Z,0.30
2023-05-12T01:01:34.942Z,0.20
2023-05-12T01:02:34.997Z,0.20
2023-05-12T01:03:34.954Z,0.30
2023-05-12T01:04:34.851Z,0.20
2023-05-12T01:05:34.813Z,0.20
2023-05-12T01:06:34.800Z,0.20
2023-05-12T01:07:34.819Z,0.30
2023-05-12T01:08:34.786Z,0.20
2023-05-12T01:09:34.758Z,0.20
2023-05-12T01:10:34.764Z,0.20
2023-05-12T01:11:34.734Z,0.20
2023-05-12T01:12:34.722Z,0.20
2023-05-12T01:13:34.713Z,0.20
2023-05-12T01:14:34.698Z,0.20
2023-05-12T01:15:34.682Z,0.30
2023-05-12T01:16:34.692Z,0.30
2023-05-12T01:17:34.694Z,0.20
2023-05-12T01:18:34.725Z,0.20
2023-05-12T01:19:34.631Z,0.30
2023-05-12T01:20:34.651Z,0.30
2023-05-12T01:21:34.610Z,0.20
2023-05-12T01:22:34.595Z,0.30
2023-05-12T01:23:34.591Z,0.20
2023-05-12T01:24:34.565Z,0.20
2023-05-12T01:25:34.554Z,0.20
2023-05-12T01:26:34.585Z,0.20
2023-05-12T01:27:34.539Z,0.20
2023-05-12T01:28:34.514Z,0.20
2023-05-12T01:29:34.499Z,0.20
2023-05-12T01:30:34.485Z,0.20
2023-05-12T01:31:34.562Z,0.20
2023-05-12T01:32:34.498Z,0.20
2023-05-12T01:33:34.468Z,0.20
2023-05-12T01:34:34.435Z,0.20
2023-05-12T01:35:34.421Z,0.20
2023-05-12T01:36:34.436Z,0.20
2023-05-12T01:37:34.402Z,0.20
2023-05-12T01:38:34.383Z,0.20
2023-05-12T01:39:34.391Z,0.20
2023-05-12T01:40:34.356Z,0.20
2023-05-12T01:41:34.346Z,0.20
2023-05-12T01:42:34.332Z,0.20
2023-05-12T01:43:34.312Z,0.20
2023-05-12T01:44:34.318Z,0.20
2023-05-12T01:45:34.289Z,0.20
2023-05-12T01:46:34.419Z,0.20
2023-05-12T01:47:34.314Z,0.20
2023-05-12T01:48:34.270Z,0.20
2023-05-12T01:49:34.245Z,0.30
2023-05-12T01:50:34.242Z,0.20
2023-05-12T01:51:34.214Z,0.20
2023-05-12T01:52:34.222Z,0.20
2023-05-12T01:53:34.182Z,0.20
2023-05-12T01:54:34.338Z,0.20
2023-05-12T01:55:34.155Z,0.20
2023-05-12T01:56:34.146Z,0.20
2023-05-12T01:57:34.136Z,0.20
2023-05-12T01:58:34.234Z,0.20
2023-05-12T01:59:34.120Z,0.20
2023-05-12T02:00:34.101Z,0.20
2023-05-12T02:01:34.088Z,0.20
2023-05-12T02:02:34.131Z,0.20
2023-05-12T02:03:34.135Z,0.20
2023-05-12T02:04:34.047Z,0.20
2023-05-12T02:05:34.031Z,0.20
2023-05-12T02:06:34.036Z,0.20
2023-05-12T02:07:34.005Z,0.20
2023-05-12T02:08:34.014Z,0.10
2023-05-12T02:09:33.971Z,0.10
2023-05-12T02:10:33.978Z,0.20
2023-05-12T02:11:33.951Z,0.20
2023-05-12T02:12:33.946Z,0.10
2023-05-12T02:13:33.928Z,0.10
2023-05-12T02:14:33.910Z,0.10
2023-05-12T02:15:33.900Z,0.20
2023-05-12T02:16:33.906Z,0.10
2023-05-12T02:17:33.911Z,0.20
2023-05-12T02:18:33.869Z,0.10
2023-05-12T02:19:33.846Z,0.20
2023-05-12T02:20:33.836Z,0.10
2023-05-12T02:21:33.826Z,0.10
2023-05-12T02:22:33.804Z,0.20
2023-05-12T02:23:33.799Z,0.20
2023-05-12T02:24:33.812Z,0.20
2023-05-12T02:25:33.790Z,0.20
2023-05-12T02:26:33.755Z,0.20
2023-05-12T02:27:33.743Z,0.20
2023-05-12T02:28:33.729Z,0.20
2023-05-12T02:29:33.721Z,0.20
2023-05-12T02:30:33.702Z,0.20
2023-05-12T02:31:33.722Z,0.10
2023-05-12T02:32:33.708Z,0.20
2023-05-12T02:33:33.676Z,0.20
2023-05-12T02:34:33.661Z,0.20
2023-05-12T02:35:33.634Z,0.20
2023-05-12T02:36:33.645Z,0.20
2023-05-12T02:37:33.613Z,0.20
2023-05-12T02:38:33.604Z,0.10
2023-05-12T02:39:33.594Z,0.10
2023-05-12T02:40:33.595Z,0.10
2023-05-12T02:41:33.565Z,0.10
2023-05-12T02:42:33.548Z,0.10
2023-05-12T02:43:33.540Z,0.10
2023-05-12T02:44:33.521Z,0.20
2023-05-12T02:45:33.534Z,0.20
2023-05-12T02:46:33.504Z,0.20
2023-05-12T02:47:33.541Z,0.20
2023-05-12T02:48:33.468Z,0.20
2023-05-12T02:49:33.459Z,0.20
2023-05-12T02:50:33.456Z,0.20
2023-05-12T02:51:33.437Z,0.20
2023-05-12T02:52:33.421Z,0.20
2023-05-12T02:53:33.413Z,0.20
2023-05-12T02:54:33.396Z,0.10
2023-05-12T02:55:33.384Z,0.20
2023-05-12T02:56:34.047Z,0.20
2023-05-12T02:57:33.357Z,0.20
2023-05-12T02:58:33.355Z,0.20
2023-05-12T02:59:33.331Z,0.20
2023-05-12T03:00:33.318Z,0.20
2023-05-12T03:01:33.351Z,0.10
2023-05-12T03:02:33.367Z,0.20
2023-05-12T03:03:33.351Z,0.20
2023-05-12T03:04:33.271Z,0.20
2023-05-12T03:05:33.254Z,0.10
2023-05-12T03:06:33.252Z,0.20
2023-05-12T03:07:33.229Z,0.10
2023-05-12T03:08:33.214Z,0.10
2023-05-12T03:09:33.204Z,0.10
2023-05-12T03:10:33.191Z,0.10
2023-05-12T03:11:33.178Z,0.20
2023-05-12T03:12:33.195Z,0.10
2023-05-12T03:13:33.157Z,0.10
2023-05-12T03:14:33.143Z,0.20
2023-05-12T03:15:33.127Z,0.10
2023-05-12T03:16:33.130Z,0.10
2023-05-12T03:17:33.134Z,0.20
2023-05-12T03:18:33.141Z,0.20
2023-05-12T03:19:33.086Z,0.10
2023-05-12T03:20:33.062Z,0.10
2023-05-12T03:21:33.048Z,0.20
2023-05-12T03:22:33.033Z,0.20
2023-05-12T03:23:33.021Z,0.20
2023-05-12T03:24:33.006Z,0.20
2023-05-12T03:25:32.996Z,0.20
2023-05-12T03:26:32.985Z,0.10
2023-05-12T03:27:32.988Z,0.10
2023-05-12T03:28:32.984Z,0.20
2023-05-12T03:29:32.954Z,0.20
2023-05-12T03:30:32.938Z,0.10
2023-05-12T03:31:32.992Z,0.10
2023-05-12T03:32:32.957Z,0.20
2023-05-12T03:33:32.896Z,0.20
2023-05-12T03:34:32.878Z,0.10
2023-05-12T03:35:32.872Z,0.20
2023-05-12T03:36:32.867Z,0.20
2023-05-12T03:37:32.847Z,0.10
2023-05-12T03:38:32.836Z,0.10
2023-05-12T03:39:32.813Z,0.20
2023-05-12T03:40:32.797Z,0.20
2023-05-12T03:41:32.786Z,0.10
2023-05-12T03:42:32.779Z,0.20
2023-05-12T03:43:32.761Z,0.20
2023-05-12T03:44:32.778Z,0.10
2023-05-12T03:46:32.765Z,0.10
2023-05-12T03:47:32.781Z,0.20
2023-05-12T03:48:32.705Z,0.10
2023-05-12T03:49:32.686Z,0.10
2023-05-12T03:50:32.671Z,0.10
2023-05-12T03:51:32.665Z,0.20
2023-05-12T03:52:32.643Z,0.20
2023-05-12T03:53:32.631Z,0.20
2023-05-12T03:54:32.615Z,0.10
2023-05-12T03:55:32.606Z,68.40
2023-05-12T03:56:32.590Z,0.60
2023-05-12T03:57:32.588Z,0.80
2023-05-12T03:58:32.567Z,0.80
2023-05-12T03:59:32.556Z,0.60
2023-05-12T04:00:32.620Z,0.70
2023-05-12T04:01:32.589Z,0.80
2023-05-12T04:02:32.850Z,0.50
2023-05-12T04:03:32.579Z,0.60
2023-05-12T04:04:32.491Z,0.70
2023-05-12T04:05:32.493Z,10.30
2023-05-12T04:06:32.469Z,9.80
2023-05-12T04:07:32.454Z,0.60
2023-05-12T04:08:32.458Z,0.60
2023-05-12T04:09:32.440Z,0.60
2023-05-12T04:10:32.411Z,0.60
2023-05-12T04:11:32.398Z,0.60
2023-05-12T04:12:32.382Z,0.60
2023-05-12T04:13:32.370Z,0.50
2023-05-12T04:14:42.098Z,0.70
2023-05-12T04:15:32.365Z,0.60
2023-05-12T04:16:32.462Z,69.00
2023-05-12T04:17:32.334Z,0.60
2023-05-12T04:18:32.341Z,0.60
2023-05-12T04:19:32.298Z,0.70
2023-05-12T04:20:32.284Z,0.60
2023-05-12T04:21:32.275Z,0.60
2023-05-12T04:22:32.256Z,0.70
2023-05-12T04:23:32.245Z,0.60
2023-05-12T04:24:32.259Z,0.60
2023-05-12T04:25:32.217Z,0.50
2023-05-12T04:26:32.199Z,0.70
2023-05-12T04:27:32.194Z,78.90
2023-05-12T04:28:32.176Z,76.59
2023-05-12T04:29:32.165Z,76.19
2023-05-12T04:30:32.151Z,74.50
2023-05-12T04:31:32.159Z,72.69
2023-05-12T04:32:32.219Z,72.30
2023-05-12T04:33:32.123Z,69.59
2023-05-12T04:34:32.103Z,70.59
2023-05-12T04:35:32.091Z,69.80
2023-05-12T04:36:32.094Z,67.90
2023-05-12T04:37:32.074Z,70.50
2023-05-12T04:38:32.058Z,67.90
2023-05-12T04:39:32.039Z,70.00
2023-05-12T04:40:34.258Z,67.90
2023-05-12T04:41:32.020Z,70.19
2023-05-12T04:42:31.998Z,70.40
2023-05-12T04:44:32.170Z,73.00
2023-05-12T04:45:31.966Z,72.09
2023-05-12T04:46:32.000Z,73.90
2023-05-12T04:47:31.938Z,74.90
2023-05-12T04:48:31.997Z,72.69
2023-05-12T04:49:31.923Z,74.30
2023-05-12T04:50:31.893Z,72.00
2023-05-12T04:51:31.886Z,70.09
2023-05-12T04:52:31.865Z,72.19
2023-05-12T04:53:31.857Z,74.00
2023-05-12T04:54:31.843Z,72.40
2023-05-12T04:55:31.837Z,72.50
2023-05-12T04:56:31.819Z,72.90
2023-05-12T04:57:31.812Z,70.40
2023-05-12T04:58:31.794Z,65.80
2023-05-12T04:59:31.805Z,63.50
2023-05-12T05:00:31.766Z,61.59
2023-05-12T05:01:31.826Z,61.79
2023-05-12T05:02:31.831Z,60.20
2023-05-12T05:03:31.879Z,59.50
2023-05-12T05:04:31.780Z,59.00
2023-05-12T05:05:31.701Z,59.40
2023-05-12T05:06:31.691Z,58.09
2023-05-12T05:07:31.692Z,58.59
2023-05-12T05:08:31.658Z,59.79
2023-05-12T05:09:32.591Z,59.79
2023-05-12T05:10:31.636Z,61.40
2023-05-12T05:11:31.626Z,69.19
2023-05-12T05:12:31.609Z,68.30
2023-05-12T05:13:31.600Z,72.59
2023-05-12T05:14:31.585Z,77.90
2023-05-12T05:15:31.656Z,77.30
2023-05-12T05:16:31.667Z,77.69
2023-05-12T05:17:31.565Z,72.30
2023-05-12T05:18:31.560Z,86.59
2023-05-12T05:20:32.339Z,97.40
2023-05-12T05:21:31.489Z,96.90
2023-05-12T05:22:31.497Z,98.59
2023-05-12T05:23:31.481Z,99.90
2023-05-12T05:24:31.457Z,98.09
2023-05-12T05:25:31.441Z,95.90
2023-05-12T05:26:31.426Z,88.69
2023-05-12T05:27:31.418Z,84.69
2023-05-12T05:28:31.400Z,73.80
2023-05-12T05:29:31.392Z,76.90
2023-05-12T05:30:31.383Z,72.90
2023-05-12T05:31:31.388Z,70.50
2023-05-12T05:32:31.385Z,65.19
2023-05-12T05:33:31.357Z,66.90
2023-05-12T05:34:31.381Z,72.69
2023-05-12T05:35:31.317Z,78.69
2023-05-12T05:36:31.806Z,77.00
2023-05-12T05:37:31.294Z,89.40
2023-05-12T05:38:31.273Z,94.09
2023-05-12T05:39:31.265Z,97.80
2023-05-12T05:40:38.792Z,97.69
2023-05-12T05:41:31.241Z,99.90
2023-05-12T05:42:31.225Z,93.69
2023-05-12T05:43:31.211Z,96.00
2023-05-12T05:44:31.197Z,97.90
2023-05-12T05:45:31.185Z,106.09
2023-05-12T05:46:31.208Z,121.40
2023-05-12T05:47:31.217Z,131.10
2023-05-12T05:48:31.159Z,132.89
2023-05-12T05:49:31.138Z,135.39
2023-05-12T05:50:31.125Z,135.19
2023-05-12T05:51:31.106Z,127.30
2023-05-12T05:52:31.117Z,125.30
2023-05-12T05:53:31.085Z,108.30
2023-05-12T05:54:31.067Z,95.90
2023-05-12T05:55:31.056Z,92.40
2023-05-12T05:56:31.038Z,76.09
2023-05-12T05:57:31.036Z,86.09
2023-05-12T05:58:31.018Z,86.09
2023-05-12T05:59:31.004Z,90.40
2023-05-12T06:00:30.981Z,99.09
2023-05-12T06:01:30.981Z,97.59
2023-05-12T06:02:31.134Z,97.40
2023-05-12T06:03:30.985Z,100.69
2023-05-12T06:04:30.935Z,93.09
2023-05-12T06:05:30.924Z,96.80
2023-05-12T06:06:30.907Z,104.59
2023-05-12T06:07:30.895Z,100.90
2023-05-12T06:08:31.019Z,95.19
2023-05-12T06:09:30.870Z,84.30
2023-05-12T06:10:30.857Z,87.80
2023-05-12T06:11:30.844Z,79.90
2023-05-12T06:12:30.830Z,86.69
2023-05-12T06:13:30.817Z,88.69
2023-05-12T06:14:30.804Z,125.59
2023-05-12T06:15:30.793Z,134.60
2023-05-12T06:16:30.823Z,128.69
2023-05-12T06:17:32.596Z,121.40
2023-05-12T06:18:30.827Z,125.90
2023-05-12T06:19:30.744Z,127.19
2023-05-12T06:20:30.726Z,132.39
2023-05-12T06:21:30.714Z,134.50
2023-05-12T06:22:30.700Z,129.19
2023-05-12T06:23:30.714Z,137.10
2023-05-12T06:24:30.695Z,137.30
2023-05-12T06:25:30.665Z,141.80
2023-05-12T06:26:30.645Z,150.50
2023-05-12T06:27:30.676Z,149.69
2023-05-12T06:28:30.661Z,150.39
2023-05-12T06:29:30.607Z,140.00
2023-05-12T06:30:30.612Z,138.19
2023-05-12T06:31:30.602Z,134.69
2023-05-12T06:32:30.607Z,137.30
2023-05-12T06:33:30.556Z,134.00
2023-05-12T06:34:30.557Z,138.10
2023-05-12T06:35:30.535Z,143.89
2023-05-12T06:36:30.556Z,141.80
2023-05-12T06:37:30.511Z,145.10
2023-05-12T06:38:30.493Z,146.30
2023-05-12T06:39:30.478Z,145.00
2023-05-12T06:40:30.529Z,139.69
2023-05-12T06:41:30.462Z,136.10
2023-05-12T06:42:30.453Z,133.60
2023-05-12T06:43:30.452Z,138.89
2023-05-12T06:44:30.417Z,133.69
2023-05-12T06:45:30.405Z,111.80
2023-05-12T06:46:30.425Z,105.30
2023-05-12T06:47:30.411Z,104.19
2023-05-12T06:48:30.367Z,122.80
2023-05-12T06:49:30.357Z,136.89
2023-05-12T06:50:30.340Z,135.30
2023-05-12T06:51:30.327Z,135.69
2023-05-12T06:52:30.310Z,135.19
2023-05-12T06:53:30.307Z,137.30
2023-05-12T06:54:30.290Z,137.10
2023-05-12T06:55:30.283Z,137.80
2023-05-12T06:56:30.298Z,140.39
2023-05-12T06:57:30.248Z,134.60
2023-05-12T06:58:30.238Z,136.00
2023-05-12T06:59:30.221Z,131.30
2023-05-12T07:00:30.218Z,131.80
2023-05-12T07:01:30.257Z,135.30
2023-05-12T07:02:30.224Z,138.00
2023-05-12T07:03:30.205Z,123.00
2023-05-12T07:04:30.166Z,130.10
2023-05-12T07:05:30.207Z,127.59
2023-05-12T07:06:30.130Z,131.30
2023-05-12T07:07:30.126Z,119.50
2023-05-12T07:08:30.108Z,131.19
2023-05-12T07:09:30.090Z,132.30
2023-05-12T07:10:30.077Z,106.30
2023-05-12T07:11:30.066Z,123.59
2023-05-12T07:12:30.094Z,123.59
2023-05-12T07:13:30.035Z,124.19
2023-05-12T07:14:30.035Z,124.09
2023-05-12T07:15:31.968Z,117.40
2023-05-12T07:16:30.090Z,99.30
2023-05-12T07:17:30.009Z,109.09
2023-05-12T07:18:30.001Z,121.40
2023-05-12T07:19:29.963Z,125.40
2023-05-12T07:20:29.946Z,120.59
2023-05-12T07:21:29.935Z,118.40
2023-05-12T07:22:29.926Z,125.30
2023-05-12T07:23:29.918Z,122.50
2023-05-12T07:24:29.894Z,117.40
2023-05-12T07:25:29.918Z,117.50
2023-05-12T07:26:29.872Z,109.19
2023-05-12T07:27:29.853Z,105.90
2023-05-12T07:28:29.864Z,100.80
2023-05-12T07:29:29.838Z,101.19
2023-05-12T07:30:29.869Z,108.19
2023-05-12T07:31:29.804Z,100.59
2023-05-12T07:32:29.837Z,99.00
2023-05-12T07:33:29.774Z,98.80
2023-05-12T07:34:29.765Z,95.09
2023-05-12T07:35:29.749Z,95.30
2023-05-12T07:36:29.750Z,99.40
2023-05-12T07:37:29.731Z,104.59
2023-05-12T07:38:29.703Z,102.00
2023-05-12T07:39:29.700Z,105.09
2023-05-12T07:40:29.683Z,105.09
2023-05-12T07:41:29.676Z,117.50
2023-05-12T07:42:29.660Z,112.59
2023-05-12T07:43:29.646Z,119.40
2023-05-12T07:44:29.690Z,114.19
2023-05-12T07:45:29.614Z,115.09
2023-05-12T07:46:29.634Z,111.50
2023-05-12T07:47:29.616Z,112.59
2023-05-12T07:48:29.585Z,114.40
2023-05-12T07:49:29.581Z,118.90
2023-05-12T07:50:29.593Z,126.59
2023-05-12T07:51:29.532Z,119.80
2023-05-12T07:52:29.523Z,127.69
2023-05-12T07:53:29.506Z,119.69
2023-05-12T07:54:29.529Z,102.30
2023-05-12T07:55:29.484Z,94.30
2023-05-12T07:56:29.469Z,96.40
2023-05-12T07:57:29.455Z,106.50
2023-05-12T07:58:29.455Z,115.19
2023-05-12T07:59:29.431Z,119.59
2023-05-12T08:00:29.470Z,117.40
2023-05-12T08:01:29.404Z,115.50
2023-05-12T08:02:29.530Z,107.19
2023-05-12T08:03:29.438Z,109.00
2023-05-12T08:04:29.520Z,112.50
2023-05-12T08:05:29.347Z,114.69
2023-05-12T08:06:29.337Z,124.59
2023-05-12T08:07:29.321Z,117.80
2023-05-12T08:08:29.317Z,109.90
2023-05-12T08:09:29.294Z,107.90
2023-05-12T08:10:29.287Z,112.69
2023-05-12T08:11:29.276Z,114.30
2023-05-12T08:12:29.254Z,113.40
2023-05-12T08:13:29.245Z,116.19
2023-05-12T08:14:29.228Z,114.80
2023-05-12T08:15:29.215Z,120.40
2023-05-12T08:16:29.384Z,111.40
2023-05-12T08:17:29.538Z,102.40
2023-05-12T08:18:29.192Z,96.80
2023-05-12T08:19:29.160Z,103.90
2023-05-12T08:20:29.154Z,119.80
2023-05-12T08:21:29.137Z,114.50
2023-05-12T08:22:29.126Z,102.69
2023-05-12T08:23:29.108Z,98.40
2023-05-12T08:24:29.093Z,98.80
2023-05-12T08:25:29.087Z,102.00
2023-05-12T08:26:29.272Z,99.40
2023-05-12T08:27:29.053Z,103.00
2023-05-12T08:28:29.041Z,108.59
2023-05-12T08:29:29.043Z,101.69
2023-05-12T08:30:29.011Z,101.19
2023-05-12T08:31:29.056Z,98.09
2023-05-12T08:32:29.077Z,97.09
2023-05-12T08:33:28.973Z,100.09
2023-05-12T08:34:28.970Z,104.00
2023-05-12T08:35:28.959Z,103.90
2023-05-12T08:36:28.938Z,113.50
2023-05-12T08:37:28.926Z,117.59
2023-05-12T08:38:28.925Z,111.59
2023-05-12T08:39:28.903Z,115.40
2023-05-12T08:40:28.889Z,109.69
2023-05-12T08:41:28.881Z,105.19
2023-05-12T08:42:28.863Z,105.00
2023-05-12T08:43:28.848Z,94.80
2023-05-12T08:44:28.837Z,93.40
2023-05-12T08:45:28.840Z,94.40
2023-05-12T08:46:28.866Z,96.30
2023-05-12T08:47:28.849Z,95.50
2023-05-12T08:48:28.832Z,99.90
2023-05-12T08:49:28.774Z,90.90
2023-05-12T08:50:28.773Z,88.50
2023-05-12T08:51:28.755Z,76.19
2023-05-12T08:52:28.740Z,75.30
2023-05-12T08:53:28.724Z,74.09
2023-05-12T08:54:28.712Z,74.50
2023-05-12T08:55:32.736Z,73.30
2023-05-12T08:57:29.785Z,72.69
2023-05-12T08:58:40.299Z,71.40
2023-05-12T08:59:30.642Z,70.19
2023-05-12T09:00:28.689Z,67.80
2023-05-12T09:01:28.653Z,66.50
2023-05-12T09:02:37.671Z,65.69
2023-05-12T09:03:28.680Z,67.59
2023-05-12T09:04:28.702Z,64.50
2023-05-12T09:05:28.562Z,72.90
2023-05-12T09:06:28.556Z,75.80
2023-05-12T09:07:28.548Z,75.59
2023-05-12T09:08:28.541Z,74.19
2023-05-12T09:09:28.517Z,79.50
2023-05-12T09:10:34.360Z,82.69
2023-05-12T09:11:30.492Z,82.40
2023-05-12T09:12:28.479Z,83.19
2023-05-12T09:13:28.588Z,78.30
2023-05-12T09:14:28.461Z,78.30
2023-05-12T09:15:28.446Z,77.40
2023-05-12T09:16:28.521Z,77.09
2023-05-12T09:17:28.472Z,83.69
2023-05-12T09:18:28.431Z,73.19
2023-05-12T09:19:28.409Z,70.69
2023-05-12T09:20:31.487Z,72.00
2023-05-12T09:21:28.373Z,74.59
2023-05-12T09:22:28.362Z,71.50
2023-05-12T09:23:28.346Z,72.00
2023-05-12T09:24:28.335Z,71.00
2023-05-12T09:25:28.317Z,74.09
2023-05-12T09:26:28.314Z,71.30
2023-05-12T09:27:28.301Z,64.59
2023-05-12T09:28:28.283Z,62.59
2023-05-12T09:29:31.904Z,68.59
2023-05-12T09:30:28.260Z,63.29
2023-05-12T09:31:28.285Z,63.90
2023-05-12T09:32:28.258Z,65.80
2023-05-12T09:33:28.225Z,64.90
2023-05-12T09:34:28.209Z,65.09
2023-05-12T09:35:28.192Z,72.80
2023-05-12T09:36:28.213Z,61.59
2023-05-12T09:37:28.167Z,62.90
2023-05-12T09:38:28.160Z,71.50
2023-05-12T09:39:28.143Z,75.09
2023-05-12T09:40:28.132Z,71.59
2023-05-12T09:41:28.120Z,67.90
2023-05-12T09:42:28.112Z,69.40
2023-05-12T09:43:28.097Z,68.09
2023-05-12T09:44:28.082Z,68.09
2023-05-12T09:45:28.081Z,68.90
2023-05-12T09:46:28.126Z,66.30
2023-05-12T09:47:28.070Z,66.40
2023-05-12T09:48:28.029Z,69.40
2023-05-12T09:49:28.013Z,70.59
2023-05-12T09:50:32.487Z,63.29
2023-05-12T09:51:27.989Z,62.70
2023-05-12T09:52:27.998Z,59.90
2023-05-12T09:53:27.974Z,58.70
2023-05-12T09:54:27.955Z,58.40
2023-05-12T09:55:27.945Z,59.09
2023-05-12T09:56:27.926Z,68.19
2023-05-12T09:57:27.912Z,69.80
2023-05-12T09:58:27.913Z,70.09
2023-05-12T09:59:27.892Z,70.40
2023-05-12T10:00:46.248Z,68.59
2023-05-12T10:01:27.888Z,68.59
2023-05-12T10:02:27.929Z,69.69
2023-05-12T10:03:27.837Z,62.09
2023-05-12T10:04:27.858Z,52.00
2023-05-12T10:05:27.805Z,55.00
2023-05-12T10:06:27.812Z,58.79
2023-05-12T10:07:27.778Z,63.90
2023-05-12T10:08:27.832Z,65.19
2023-05-12T10:09:27.757Z,60.59
2023-05-12T10:10:27.748Z,61.50
2023-05-12T10:11:27.729Z,60.79
2023-05-12T10:12:27.714Z,59.09
2023-05-12T10:13:27.707Z,55.09
2023-05-12T10:14:27.689Z,56.29
2023-05-12T10:15:27.673Z,54.90
2023-05-12T10:16:27.693Z,47.79
2023-05-12T10:17:27.727Z,49.29
2023-05-12T10:18:27.666Z,52.00
2023-05-12T10:19:27.630Z,48.59
2023-05-12T10:20:27.611Z,39.40
2023-05-12T10:21:27.596Z,42.50
2023-05-12T10:22:27.586Z,44.70
2023-05-12T10:23:27.573Z,50.29
2023-05-12T10:24:27.662Z,41.50
2023-05-12T10:25:27.549Z,38.59
2023-05-12T10:26:27.534Z,35.09
2023-05-12T10:27:27.524Z,37.29
2023-05-12T10:28:27.513Z,47.09
2023-05-12T10:29:27.499Z,36.20
2023-05-12T10:30:27.488Z,34.09
2023-05-12T10:31:27.483Z,38.29
2023-05-12T10:32:27.502Z,42.90
2023-05-12T10:33:27.505Z,48.29
2023-05-12T10:34:27.444Z,47.40
2023-05-12T10:35:27.432Z,47.70
2023-05-12T10:36:27.421Z,37.70
2023-05-12T10:37:27.400Z,42.09
2023-05-12T10:38:27.386Z,42.40
2023-05-12T10:39:27.370Z,44.00
2023-05-12T10:40:27.416Z,43.40
2023-05-12T10:41:27.347Z,42.59
2023-05-12T10:42:27.339Z,40.50
2023-05-12T10:43:27.538Z,42.70
2023-05-12T10:44:27.310Z,39.20
2023-05-12T10:45:27.305Z,46.50
2023-05-12T10:46:27.340Z,43.09
2023-05-12T10:47:27.358Z,40.79
2023-05-12T10:48:27.258Z,42.29
2023-05-12T10:49:27.246Z,41.40
2023-05-12T10:50:27.233Z,38.40
2023-05-12T10:51:27.221Z,38.00
2023-05-12T10:52:27.208Z,40.59
2023-05-12T10:53:32.631Z,40.79
2023-05-12T10:54:27.180Z,42.50
2023-05-12T10:55:27.374Z,41.90
2023-05-12T10:56:27.417Z,42.09
2023-05-12T10:57:27.431Z,43.29
2023-05-12T10:58:27.573Z,39.09
2023-05-12T10:59:27.546Z,38.29
2023-05-12T11:00:27.948Z,39.29
2023-05-12T11:01:27.655Z,39.90
2023-05-12T11:02:28.017Z,42.59
2023-05-12T11:03:28.363Z,44.29
2023-05-12T11:04:27.143Z,42.20
2023-05-12T11:05:27.638Z,37.79
2023-05-12T11:06:27.266Z,35.90
2023-05-12T11:07:27.267Z,36.20
2023-05-12T11:08:28.329Z,30.10
2023-05-12T11:09:27.346Z,39.40
2023-05-12T11:10:27.116Z,38.40
2023-05-12T11:11:27.819Z,36.70
2023-05-12T11:12:27.008Z,40.09
2023-05-12T11:13:26.938Z,34.20
2023-05-12T11:14:26.924Z,38.40
2023-05-12T11:15:26.912Z,34.09
2023-05-12T11:16:26.934Z,35.29
2023-05-12T11:17:26.945Z,37.59
2023-05-12T11:18:26.897Z,36.20
2023-05-12T11:19:26.860Z,37.09
2023-05-12T11:20:29.527Z,37.70
2023-05-12T11:21:26.859Z,37.00
2023-05-12T11:22:26.833Z,23.70
2023-05-12T11:23:26.828Z,26.50
2023-05-12T11:24:26.797Z,26.29
2023-05-12T11:25:26.829Z,27.29
2023-05-12T11:26:26.785Z,31.00
2023-05-12T11:27:26.764Z,27.29
2023-05-12T11:28:26.805Z,29.50
2023-05-12T11:29:26.737Z,26.10
2023-05-12T11:30:26.720Z,31.50
2023-05-12T11:31:26.788Z,37.09
2023-05-12T11:32:26.874Z,37.09
2023-05-12T11:33:26.697Z,35.90
2023-05-12T11:34:26.875Z,37.29
2023-05-12T11:35:26.675Z,33.09
2023-05-12T11:36:26.645Z,32.00
2023-05-12T11:37:26.630Z,34.09
2023-05-12T11:38:26.661Z,33.40
2023-05-12T11:39:26.609Z,38.50
2023-05-12T11:40:26.612Z,46.40
2023-05-12T11:41:26.581Z,45.79
2023-05-12T11:42:26.565Z,42.50
2023-05-12T11:43:26.571Z,42.70
2023-05-12T11:44:26.601Z,45.20
2023-05-12T11:45:26.548Z,47.70
2023-05-12T11:47:26.529Z,46.59
2023-05-12T11:48:26.493Z,42.79
2023-05-12T11:49:26.483Z,44.59
2023-05-12T11:50:26.522Z,44.50
2023-05-12T11:51:26.456Z,45.50
2023-05-12T11:52:26.494Z,45.90
2023-05-12T11:53:27.640Z,44.70
2023-05-12T11:54:26.417Z,46.40
2023-05-12T11:55:26.413Z,45.90
2023-05-12T11:56:26.387Z,42.79
2023-05-12T11:57:26.382Z,37.59
2023-05-12T11:58:26.388Z,35.50
2023-05-12T11:59:26.376Z,39.70
2023-05-12T12:00:26.416Z,43.29
2023-05-12T12:01:26.331Z,34.20
2023-05-12T12:02:26.396Z,34.09
2023-05-12T12:03:26.430Z,40.40
2023-05-12T12:04:26.310Z,37.09
2023-05-12T12:05:26.280Z,37.29
2023-05-12T12:06:26.272Z,34.20
2023-05-12T12:07:26.256Z,32.40
2023-05-12T12:08:26.242Z,38.00
2023-05-12T12:09:26.223Z,33.50
2023-05-12T12:10:26.215Z,34.00
2023-05-12T12:11:26.203Z,35.59
2023-05-12T12:12:26.192Z,37.50
2023-05-12T12:13:26.175Z,33.40
2023-05-12T12:14:26.164Z,38.90
2023-05-12T12:15:26.155Z,44.29
2023-05-12T12:16:26.200Z,41.70
2023-05-12T12:17:26.158Z,37.00
2023-05-12T12:18:26.150Z,40.29
2023-05-12T12:19:26.100Z,33.50
2023-05-12T12:20:26.087Z,33.09
2023-05-12T12:21:26.080Z,35.00
2023-05-12T12:22:26.058Z,31.20
2023-05-12T12:23:26.070Z,33.79
2023-05-12T12:24:26.032Z,35.79
2023-05-12T12:25:26.027Z,34.70
2023-05-12T12:26:26.014Z,35.40
2023-05-12T12:27:25.998Z,39.70
2023-05-12T12:28:25.979Z,38.40
2023-05-12T12:29:26.018Z,34.09
2023-05-12T12:30:25.959Z,35.90
2023-05-12T12:31:25.991Z,32.40
2023-05-12T12:32:25.972Z,32.90
2023-05-12T12:33:25.915Z,33.70
2023-05-12T12:34:25.909Z,35.00
2023-05-12T12:35:25.893Z,33.09
2023-05-12T12:36:25.879Z,33.09
2023-05-12T12:37:25.871Z,48.50
2023-05-12T12:38:25.853Z,37.29
2023-05-12T12:39:25.847Z,35.59
2023-05-12T12:40:25.829Z,34.20
2023-05-12T12:41:25.819Z,35.40
2023-05-12T12:42:25.801Z,38.70
2023-05-12T12:43:25.793Z,37.09
2023-05-12T12:44:25.784Z,36.09
2023-05-12T12:46:25.776Z,31.70
2023-05-12T12:47:25.757Z,33.79
2023-05-12T12:48:25.748Z,34.09
2023-05-12T12:49:25.712Z,34.70
2023-05-12T12:50:27.154Z,33.50
2023-05-12T12:51:32.610Z,33.79
2023-05-12T12:52:25.678Z,38.40
2023-05-12T12:53:25.676Z,36.29
2023-05-12T12:54:25.648Z,42.20
2023-05-12T12:55:25.638Z,39.20
2023-05-12T12:56:25.692Z,39.09
2023-05-12T12:57:25.607Z,41.29
2023-05-12T12:58:25.596Z,43.09
2023-05-12T12:59:25.584Z,49.09
2023-05-12T13:00:25.572Z,50.79
2023-05-12T13:01:25.580Z,38.90
2023-05-12T13:02:25.770Z,36.00